createdAt,value
2023-03-06T00:02:08.234Z,1.59
2023-03-06T00:04:34.737Z,1.61
2023-03-06T00:07:01.195Z,1.67
2023-03-06T00:09:27.602Z,1.80
2023-03-06T00:11:53.994Z,1.78
2023-03-06T00:14:20.573Z,1.76
2023-03-06T00:16:47.034Z,1.73
2023-03-06T00:19:14.081Z,1.68
2023-03-06T00:21:40.631Z,1.63
2023-03-06T00:24:07.462Z,1.58
2023-03-06T00:26:35.942Z,1.59
2023-03-06T00:29:05.594Z,1.66
2023-03-06T00:31:32.342Z,1.55
2023-03-06T00:33:58.833Z,1.44
2023-03-06T00:36:26.148Z,1.42
2023-03-06T00:38:52.663Z,1.51
2023-03-06T00:41:21.251Z,1.50
2023-03-06T00:43:47.742Z,1.46
2023-03-06T00:46:14.305Z,1.51
2023-03-06T00:48:40.907Z,1.53
2023-03-06T00:51:07.384Z,1.55
2023-03-06T00:53:34.632Z,1.52
2023-03-06T00:56:01.278Z,1.50
2023-03-06T00:58:27.807Z,1.54
2023-03-06T01:00:56.475Z,1.39
2023-03-06T01:03:22.918Z,1.52
2023-03-06T01:05:52.252Z,1.60
2023-03-06T01:08:18.786Z,1.66
2023-03-06T01:10:45.994Z,1.68
2023-03-06T01:13:12.586Z,1.65
2023-03-06T01:15:39.149Z,1.62
2023-03-06T01:18:05.895Z,1.52
2023-03-06T01:20:32.445Z,1.45
2023-03-06T01:22:59.026Z,1.44
2023-03-06T01:25:26.175Z,1.41
2023-03-06T01:27:53.315Z,1.28
2023-03-06T01:30:20.534Z,1.32
2023-03-06T01:32:47.436Z,1.33
2023-03-06T01:35:14.609Z,1.38
2023-03-06T01:37:41.203Z,1.32
2023-03-06T01:40:09.382Z,1.31
2023-03-06T01:42:35.852Z,1.34
2023-03-06T01:45:06.583Z,1.18
2023-03-06T01:47:35.065Z,1.24
2023-03-06T01:50:03.166Z,1.21
2023-03-06T01:52:32.721Z,1.32
2023-03-06T01:55:03.503Z,1.33
2023-03-06T01:57:33.526Z,1.34
2023-03-06T02:00:06.805Z,1.49
2023-03-06T02:02:40.305Z,1.43
2023-03-06T02:05:08.712Z,1.36
2023-03-06T02:07:37.072Z,1.39
2023-03-06T02:10:05.628Z,1.38
2023-03-06T02:12:32.476Z,1.29
2023-03-06T02:15:04.390Z,1.05
2023-03-06T02:17:33.641Z,1.10
2023-03-06T02:20:05.625Z,1.00
2023-03-06T02:22:39.695Z,0.82
2023-03-06T02:25:15.402Z,0.88
2023-03-06T02:27:42.671Z,0.80
2023-03-06T02:30:10.635Z,0.77
2023-03-06T02:32:37.210Z,0.86
2023-03-06T02:35:07.235Z,0.73
2023-03-06T02:37:33.713Z,0.70
2023-03-06T02:40:08.231Z,0.72
2023-03-06T02:42:34.824Z,0.72
2023-03-06T02:45:04.963Z,0.73
2023-03-06T02:47:31.733Z,0.63
2023-03-06T02:49:58.761Z,0.64
2023-03-06T02:52:25.258Z,0.68
2023-03-06T02:54:51.750Z,0.77
2023-03-06T02:57:18.300Z,0.77
2023-03-06T02:59:45.430Z,0.72
2023-03-06T03:02:12.696Z,0.71
2023-03-06T03:04:39.230Z,0.68
2023-03-06T03:07:07.456Z,0.76
2023-03-06T03:09:36.442Z,0.81
2023-03-06T03:12:05.264Z,0.83
2023-03-06T03:14:32.521Z,0.80
2023-03-06T03:16:58.982Z,0.74
2023-03-06T03:19:27.416Z,0.81
2023-03-06T03:21:54.105Z,0.81
2023-03-06T03:24:22.804Z,0.84
2023-03-06T03:26:49.590Z,0.89
2023-03-06T03:29:19.016Z,0.93
2023-03-06T03:31:45.571Z,0.82
2023-03-06T03:34:12.064Z,0.62
2023-03-06T03:36:40.656Z,0.77
2023-03-06T03:39:09.506Z,0.74
2023-03-06T03:41:37.174Z,0.82
2023-03-06T03:44:06.881Z,0.82
2023-03-06T03:46:36.463Z,0.68
2023-03-06T03:49:04.246Z,0.64
2023-03-06T03:51:31.627Z,0.81
2023-03-06T03:53:59.957Z,0.95
2023-03-06T03:56:29.823Z,0.86
2023-03-06T03:59:04.114Z,0.90
2023-03-06T04:01:39.427Z,0.80
2023-03-06T04:04:06.474Z,0.78
2023-03-06T04:06:36.153Z,0.79
2023-03-06T04:09:04.987Z,0.76
2023-03-06T04:11:32.013Z,0.83
2023-03-06T04:13:58.706Z,0.80
2023-03-06T04:16:25.623Z,0.79
2023-03-06T04:18:52.144Z,0.83
2023-03-06T04:21:20.195Z,0.86
2023-03-06T04:23:47.072Z,0.91
2023-03-06T04:26:14.759Z,1.13
2023-03-06T04:28:41.494Z,0.92
2023-03-06T04:31:08.332Z,0.90
2023-03-06T04:33:35.220Z,0.88
2023-03-06T04:36:01.832Z,0.80
2023-03-06T04:38:30.947Z,0.77
2023-03-06T04:40:57.565Z,0.83
2023-03-06T04:43:24.924Z,0.73
2023-03-06T04:45:51.472Z,0.75
2023-03-06T04:48:19.100Z,0.84
2023-03-06T04:50:45.822Z,0.83
2023-03-06T04:53:13.849Z,0.98
2023-03-06T04:55:40.374Z,0.92
2023-03-06T04:58:06.917Z,0.81
2023-03-06T05:00:34.130Z,0.74
2023-03-06T05:03:01.664Z,0.90
2023-03-06T05:05:29.063Z,0.98
2023-03-06T05:07:55.917Z,1.00
2023-03-06T05:10:22.701Z,0.96
2023-03-06T05:12:49.203Z,1.09
2023-03-06T05:15:16.228Z,1.18
2023-03-06T05:17:43.698Z,1.17
2023-03-06T05:20:12.000Z,1.23
2023-03-06T05:22:38.499Z,1.05
2023-03-06T05:25:05.774Z,0.95
2023-03-06T05:27:32.476Z,0.91
2023-03-06T05:29:59.277Z,0.80
2023-03-06T05:32:26.115Z,0.74
2023-03-06T05:34:53.483Z,0.78
2023-03-06T05:37:19.959Z,0.73
2023-03-06T05:39:46.593Z,0.72
2023-03-06T05:42:13.067Z,0.71
2023-03-06T05:44:40.999Z,0.70
2023-03-06T05:47:08.035Z,0.76
2023-03-06T05:49:35.976Z,0.86
2023-03-06T05:52:04.715Z,0.86
2023-03-06T05:54:32.133Z,0.89
2023-03-06T05:56:58.644Z,0.97
2023-03-06T05:59:27.680Z,0.99
2023-03-06T06:01:54.638Z,0.88
2023-03-06T06:04:21.915Z,1.06
2023-03-06T06:06:51.307Z,1.09
2023-03-06T06:09:18.840Z,1.02
2023-03-06T06:11:45.347Z,1.09
2023-03-06T06:14:11.835Z,1.19
2023-03-06T06:16:38.393Z,1.20
2023-03-06T06:19:04.811Z,1.32
2023-03-06T06:21:34.315Z,1.17
2023-03-06T06:24:00.749Z,1.25
2023-03-06T06:26:27.885Z,1.29
2023-03-06T06:28:54.390Z,1.36
2023-03-06T06:31:21.048Z,1.32
2023-03-06T06:33:47.584Z,1.29
2023-03-06T06:36:16.264Z,1.45
2023-03-06T06:38:43.023Z,1.56
2023-03-06T06:41:38.893Z,1.51
2023-03-06T06:43:59.017Z,1.28
2023-03-06T06:47:14.364Z,1.54
2023-03-06T06:49:13.719Z,1.71
2023-03-06T06:51:41.047Z,1.62
2023-03-06T06:54:07.990Z,1.43
2023-03-06T06:56:34.531Z,1.47
2023-03-06T06:59:15.763Z,1.70
2023-03-06T07:01:43.337Z,1.86
2023-03-06T07:04:11.748Z,1.99
2023-03-06T07:06:38.174Z,2.11
2023-03-06T07:09:05.526Z,2.00
2023-03-06T07:11:32.069Z,2.17
2023-03-06T07:13:58.608Z,2.13
2023-03-06T07:16:26.212Z,2.21
2023-03-06T07:18:52.657Z,2.43
2023-03-06T07:21:19.295Z,2.42
2023-03-06T07:23:45.762Z,2.39
2023-03-06T07:26:12.190Z,2.26
2023-03-06T07:28:51.608Z,2.40
2023-03-06T07:31:21.427Z,2.36
2023-03-06T07:33:48.797Z,2.31
2023-03-06T07:36:15.317Z,2.43
2023-03-06T07:38:41.845Z,2.43
2023-03-06T07:41:12.595Z,2.49
2023-03-06T07:43:39.597Z,2.34
2023-03-06T07:46:07.099Z,2.24
2023-03-06T07:48:34.026Z,2.31
2023-03-06T07:51:03.738Z,2.25
2023-03-06T07:53:31.204Z,2.41
2023-03-06T07:55:57.964Z,2.33
2023-03-06T07:58:25.418Z,2.46
2023-03-06T08:00:51.954Z,2.55
2023-03-06T08:03:18.487Z,2.50
2023-03-06T08:05:44.939Z,2.61
2023-03-06T08:08:12.524Z,2.48
2023-03-06T08:10:39.000Z,2.63
2023-03-06T08:13:05.687Z,2.67
2023-03-06T08:15:32.183Z,2.64
2023-03-06T08:17:58.721Z,2.82
2023-03-06T08:20:25.414Z,2.89
2023-03-06T08:22:52.107Z,3.86
2023-03-06T08:25:19.563Z,5.12
2023-03-06T08:27:46.696Z,4.82
2023-03-06T08:30:14.437Z,5.69
2023-03-06T08:32:41.342Z,5.49
2023-03-06T08:35:08.514Z,4.58
2023-03-06T08:37:35.044Z,4.20
2023-03-06T08:40:03.841Z,4.65
2023-03-06T08:42:31.486Z,5.09
2023-03-06T08:44:58.115Z,4.85
2023-03-06T08:47:24.530Z,5.22
2023-03-06T08:49:51.031Z,5.19
2023-03-06T08:52:19.092Z,4.97
2023-03-06T08:54:45.729Z,4.95
2023-03-06T08:57:12.365Z,5.71
2023-03-06T08:59:41.341Z,5.13
2023-03-06T09:02:12.056Z,4.64
2023-03-06T09:04:38.565Z,4.97
2023-03-06T09:07:05.077Z,4.58
2023-03-06T09:09:31.622Z,4.79
2023-03-06T09:11:58.180Z,5.54
2023-03-06T09:14:24.725Z,5.00
2023-03-06T09:16:51.897Z,5.24
2023-03-06T09:19:18.467Z,5.52
2023-03-06T09:21:45.065Z,4.82
2023-03-06T09:24:11.662Z,4.95
2023-03-06T09:26:46.223Z,4.47
2023-03-06T09:29:15.524Z,4.54
2023-03-06T09:31:42.014Z,4.16
2023-03-06T09:34:09.138Z,4.41
2023-03-06T09:36:49.340Z,4.98
2023-03-06T09:39:21.832Z,4.24
2023-03-06T09:41:50.612Z,3.79
2023-03-06T09:44:20.823Z,3.70
2023-03-06T09:47:08.772Z,3.61
2023-03-06T09:49:47.038Z,3.60
2023-03-06T09:52:33.643Z,4.13
2023-03-06T09:55:12.224Z,3.98
2023-03-06T09:57:46.370Z,3.98
2023-03-06T10:00:16.490Z,3.76
2023-03-06T10:02:45.755Z,4.16
2023-03-06T10:05:17.993Z,3.92
2023-03-06T10:07:50.703Z,3.67
2023-03-06T10:10:21.798Z,3.37
2023-03-06T10:12:57.336Z,3.46
2023-03-06T10:15:27.921Z,3.37
2023-03-06T10:17:56.341Z,3.43
2023-03-06T10:20:25.536Z,3.38
2023-03-06T10:23:32.964Z,3.52
2023-03-06T10:26:01.213Z,3.81
2023-03-06T10:28:30.223Z,3.78
2023-03-06T10:31:05.766Z,3.92
2023-03-06T10:33:44.649Z,3.81
2023-03-06T10:36:15.115Z,3.87
2023-03-06T10:38:43.766Z,3.54
2023-03-06T10:41:22.494Z,3.40
2023-03-06T10:44:21.040Z,4.18
2023-03-06T10:46:52.910Z,3.88
2023-03-06T10:49:26.979Z,3.66
2023-03-06T10:52:00.120Z,3.49
2023-03-06T10:54:28.516Z,3.60
2023-03-06T10:56:55.453Z,3.98
2023-03-06T10:59:24.556Z,4.17
2023-03-06T11:01:53.172Z,4.01
2023-03-06T11:04:26.462Z,3.92
2023-03-06T11:07:14.453Z,3.97
2023-03-06T11:09:41.617Z,4.20
2023-03-06T11:12:22.270Z,4.35
2023-03-06T11:15:16.676Z,4.40
2023-03-06T11:17:51.390Z,4.55
2023-03-06T11:20:18.930Z,4.73
2023-03-06T11:22:49.369Z,5.10
2023-03-06T11:25:18.649Z,4.91
2023-03-06T11:27:51.022Z,4.66
2023-03-06T11:30:21.207Z,4.48
2023-03-06T11:32:53.264Z,4.21
2023-03-06T11:35:24.195Z,4.01
2023-03-06T11:37:56.688Z,3.93
2023-03-06T11:40:29.585Z,3.67
2023-03-06T11:43:02.406Z,3.47
2023-03-06T11:45:34.064Z,3.41
2023-03-06T11:48:17.756Z,3.24
2023-03-06T11:50:46.885Z,3.12
2023-03-06T11:53:15.967Z,3.11
2023-03-06T11:55:50.415Z,3.00
2023-03-06T11:58:44.047Z,3.03
2023-03-06T12:01:18.324Z,2.96
2023-03-06T12:04:26.817Z,3.04
2023-03-06T12:07:03.778Z,3.08
2023-03-06T12:09:44.817Z,2.99
2023-03-06T12:12:24.587Z,2.91
2023-03-06T12:15:06.731Z,2.88
2023-03-06T12:17:51.870Z,2.86
2023-03-06T12:20:39.840Z,2.98
2023-03-06T12:23:19.078Z,3.21
2023-03-06T12:25:56.911Z,3.28
2023-03-06T12:28:45.967Z,3.35
2023-03-06T12:31:33.340Z,3.48
2023-03-06T12:34:14.110Z,3.41
2023-03-06T12:36:54.992Z,3.45
2023-03-06T12:39:30.341Z,3.58
2023-03-06T12:42:23.189Z,3.74
2023-03-06T12:45:19.062Z,3.59
2023-03-06T12:47:47.959Z,3.65
2023-03-06T12:50:21.847Z,3.64
2023-03-06T12:52:53.380Z,3.75
2023-03-06T12:55:24.273Z,3.79
2023-03-06T12:57:57.111Z,3.59
2023-03-06T13:01:05.122Z,3.62
2023-03-06T13:03:47.447Z,3.55
2023-03-06T13:06:49.789Z,3.38
2023-03-06T13:09:28.680Z,3.19
2023-03-06T13:12:23.027Z,3.12
2023-03-06T13:14:54.740Z,3.14
2023-03-06T13:17:27.702Z,3.29
2023-03-06T13:20:35.008Z,3.31
2023-03-06T13:23:51.187Z,3.16
2023-03-06T13:26:56.396Z,3.20
2023-03-06T13:30:23.104Z,3.16
2023-03-06T13:32:52.312Z,3.27
2023-03-06T13:35:55.645Z,3.12
2023-03-06T13:38:37.434Z,3.17
2023-03-06T13:41:32.911Z,3.10
2023-03-06T13:44:20.689Z,3.12
2023-03-06T13:46:57.129Z,3.22
2023-03-06T13:49:24.984Z,3.31
2023-03-06T13:52:06.842Z,3.28
2023-03-06T13:54:50.512Z,3.21
2023-03-06T13:57:32.806Z,3.12
2023-03-06T14:00:32.396Z,3.09
2023-03-06T14:03:28.970Z,3.14
2023-03-06T14:05:58.192Z,3.16
2023-03-06T14:08:27.561Z,3.01
2023-03-06T14:11:02.514Z,3.09
2023-03-06T14:13:41.893Z,3.08
2023-03-06T14:16:19.025Z,3.13
2023-03-06T14:18:47.790Z,3.25
2023-03-06T14:21:21.251Z,3.22
2023-03-06T14:24:00.059Z,3.30
2023-03-06T14:26:31.604Z,3.26
2023-03-06T14:29:00.122Z,3.25
2023-03-06T14:31:30.088Z,3.29
2023-03-06T14:34:01.073Z,3.30
2023-03-06T14:36:32.135Z,3.30
2023-03-06T14:39:07.025Z,3.26
2023-03-06T14:41:35.277Z,3.30
2023-03-06T14:44:15.871Z,3.26
2023-03-06T14:46:42.485Z,3.32
2023-03-06T14:49:10.021Z,3.31
2023-03-06T14:51:42.083Z,3.25
2023-03-06T14:54:18.842Z,3.23
2023-03-06T14:56:48.572Z,3.36
2023-03-06T14:59:20.877Z,3.39
2023-03-06T15:01:50.341Z,3.30
2023-03-06T15:04:24.885Z,3.23
2023-03-06T15:06:54.177Z,3.36
2023-03-06T15:09:25.361Z,3.25
2023-03-06T15:11:54.918Z,3.24
2023-03-06T15:14:30.009Z,3.37
2023-03-06T15:16:56.545Z,3.30
2023-03-06T15:19:23.233Z,3.27
2023-03-06T15:21:51.514Z,3.30
2023-03-06T15:24:34.178Z,3.27
2023-03-06T15:27:03.501Z,3.14
2023-03-06T15:29:30.199Z,3.20
2023-03-06T15:32:16.156Z,3.19
2023-03-06T15:34:42.728Z,3.22
2023-03-06T15:37:28.018Z,3.12
2023-03-06T15:40:08.668Z,3.18
2023-03-06T15:42:36.156Z,3.16
2023-03-06T15:45:15.070Z,3.17
2023-03-06T15:47:43.174Z,3.11
2023-03-06T15:50:14.831Z,3.00
2023-03-06T15:52:41.421Z,2.98
2023-03-06T15:55:10.390Z,3.02
2023-03-06T15:57:37.676Z,3.05
2023-03-06T16:00:21.692Z,3.18
2023-03-06T16:02:58.851Z,3.09
2023-03-06T16:05:26.806Z,3.24
2023-03-06T16:07:53.866Z,3.21
2023-03-06T16:10:22.871Z,3.11
2023-03-06T16:12:53.318Z,3.14
2023-03-06T16:15:21.571Z,3.12
2023-03-06T16:17:49.008Z,3.05
2023-03-06T16:20:16.824Z,3.16
2023-03-06T16:22:44.174Z,3.01
2023-03-06T16:25:11.054Z,3.05
2023-03-06T16:27:38.248Z,3.04
2023-03-06T16:30:05.747Z,3.01
2023-03-06T16:32:32.735Z,3.05
2023-03-06T16:34:59.300Z,3.02
2023-03-06T16:37:25.874Z,3.04
2023-03-06T16:39:52.426Z,3.03
2023-03-06T16:42:19.042Z,2.99
2023-03-06T16:44:46.104Z,2.97
2023-03-06T16:47:12.599Z,2.94
2023-03-06T16:49:39.188Z,2.94
2023-03-06T16:52:07.758Z,2.96
2023-03-06T16:54:34.601Z,2.94
2023-03-06T16:57:01.138Z,2.95
2023-03-06T16:59:27.619Z,2.91
2023-03-06T17:01:54.809Z,2.86
2023-03-06T17:04:21.259Z,2.83
2023-03-06T17:06:47.786Z,2.78
2023-03-06T17:09:14.366Z,2.81
2023-03-06T17:11:42.618Z,2.80
2023-03-06T17:14:09.079Z,2.72
2023-03-06T17:16:38.478Z,2.77
2023-03-06T17:19:05.727Z,2.74
2023-03-06T17:21:34.630Z,2.73
2023-03-06T17:24:02.839Z,2.65
2023-03-06T17:26:29.463Z,2.77
2023-03-06T17:28:58.605Z,2.85
2023-03-06T17:31:27.374Z,2.84
2023-03-06T17:33:59.845Z,2.69
2023-03-06T17:36:27.804Z,2.69
2023-03-06T17:38:55.750Z,2.74
2023-03-06T17:41:23.847Z,2.80
2023-03-06T17:43:51.787Z,2.83
2023-03-06T17:46:18.711Z,2.86
2023-03-06T17:48:45.544Z,2.61
2023-03-06T17:51:12.477Z,2.86
2023-03-06T17:53:43.463Z,2.93
2023-03-06T17:56:13.538Z,2.84
2023-03-06T17:58:40.070Z,2.85
2023-03-06T18:01:17.044Z,2.86
2023-03-06T18:03:45.075Z,2.85
2023-03-06T18:06:11.865Z,2.84
2023-03-06T18:08:39.605Z,2.84
2023-03-06T18:11:10.512Z,2.83
2023-03-06T18:13:41.808Z,2.79
2023-03-06T18:16:09.905Z,2.83
2023-03-06T18:18:38.880Z,2.78
2023-03-06T18:21:07.470Z,2.81
2023-03-06T18:23:35.369Z,2.77
2023-03-06T18:26:11.542Z,2.76
2023-03-06T18:28:41.543Z,2.78
2023-03-06T18:31:14.651Z,2.74
2023-03-06T18:33:41.064Z,2.76
2023-03-06T18:36:07.948Z,2.77
2023-03-06T18:38:34.469Z,2.79
2023-03-06T18:41:08.250Z,2.70
2023-03-06T18:43:34.841Z,2.72
2023-03-06T18:46:02.123Z,2.83
2023-03-06T18:48:28.711Z,2.84
2023-03-06T18:50:55.505Z,2.84
2023-03-06T18:53:22.176Z,2.83
2023-03-06T18:55:49.781Z,2.82
2023-03-06T18:58:21.055Z,2.80
2023-03-06T19:00:47.581Z,2.82
2023-03-06T19:03:14.105Z,2.78
2023-03-06T19:05:41.258Z,2.81
2023-03-06T19:08:08.796Z,2.78
2023-03-06T19:10:36.336Z,2.76
2023-03-06T19:13:03.010Z,2.77
2023-03-06T19:15:30.137Z,2.77
2023-03-06T19:17:56.902Z,2.78
2023-03-06T19:20:23.844Z,2.77
2023-03-06T19:22:50.782Z,2.77
2023-03-06T19:25:17.422Z,2.78
2023-03-06T19:27:45.342Z,2.73
2023-03-06T19:30:12.998Z,2.75
2023-03-06T19:32:40.520Z,2.71
2023-03-06T19:35:09.744Z,2.72
2023-03-06T19:37:36.542Z,2.69
2023-03-06T19:40:03.801Z,2.68
2023-03-06T19:42:30.298Z,2.68
2023-03-06T19:44:56.748Z,2.67
2023-03-06T19:47:23.472Z,2.63
2023-03-06T19:49:50.561Z,2.64
2023-03-06T19:52:17.560Z,2.65
2023-03-06T19:54:46.271Z,2.68
2023-03-06T19:57:12.753Z,2.62
2023-03-06T19:59:39.204Z,2.62
2023-03-06T20:02:05.980Z,2.70
2023-03-06T20:04:33.438Z,2.72
2023-03-06T20:07:00.710Z,2.71
2023-03-06T20:09:27.149Z,2.68
2023-03-06T20:11:53.779Z,2.56
2023-03-06T20:14:20.326Z,2.68
2023-03-06T20:16:46.843Z,2.65
2023-03-06T20:19:13.336Z,2.67
2023-03-06T20:21:39.790Z,2.66
2023-03-06T20:24:08.282Z,2.64
2023-03-06T20:26:36.211Z,2.63
2023-03-06T20:29:02.902Z,2.61
2023-03-06T20:31:30.040Z,2.61
2023-03-06T20:33:58.659Z,2.60
2023-03-06T20:36:28.048Z,2.61
2023-03-06T20:38:55.000Z,2.62
2023-03-06T20:41:23.978Z,2.58
2023-03-06T20:43:50.925Z,2.61
2023-03-06T20:46:22.786Z,2.57
2023-03-06T20:48:51.064Z,2.63
2023-03-06T20:51:19.498Z,2.74
2023-03-06T20:53:46.610Z,2.81
2023-03-06T20:56:14.062Z,2.72
2023-03-06T20:58:41.176Z,2.69
2023-03-06T21:01:07.736Z,2.69
2023-03-06T21:03:34.508Z,2.69
2023-03-06T21:06:04.102Z,2.70
2023-03-06T21:08:31.858Z,2.65
2023-03-06T21:10:58.313Z,2.59
2023-03-06T21:13:25.249Z,2.66
2023-03-06T21:15:52.713Z,2.54
2023-03-06T21:18:22.505Z,2.58
2023-03-06T21:20:50.736Z,2.55
2023-03-06T21:23:17.558Z,2.51
2023-03-06T21:25:50.085Z,2.54
2023-03-06T21:28:16.955Z,2.50
2023-03-06T21:30:44.119Z,2.49
2023-03-06T21:33:13.178Z,2.49
2023-03-06T21:35:41.193Z,2.48
2023-03-06T21:38:14.890Z,2.50
2023-03-06T21:40:44.054Z,2.54
2023-03-06T21:43:10.685Z,2.54
2023-03-06T21:45:37.448Z,2.54
2023-03-06T21:48:04.399Z,2.53
2023-03-06T21:50:31.586Z,2.51
2023-03-06T21:52:57.993Z,2.52
2023-03-06T21:55:24.405Z,2.61
2023-03-06T21:57:51.689Z,2.62
2023-03-06T22:00:19.314Z,2.60
2023-03-06T22:02:46.833Z,2.62
2023-03-06T22:05:13.251Z,2.65
2023-03-06T22:07:40.885Z,2.59
2023-03-06T22:10:11.219Z,2.60
2023-03-06T22:12:38.818Z,2.62
2023-03-06T22:15:06.602Z,2.61
2023-03-06T22:17:33.250Z,2.57
2023-03-06T22:19:59.660Z,2.56
2023-03-06T22:22:26.263Z,2.64
2023-03-06T22:24:53.500Z,2.61
2023-03-06T22:27:19.949Z,2.58
2023-03-06T22:29:46.424Z,2.59
2023-03-06T22:32:13.021Z,2.54
2023-03-06T22:34:39.516Z,2.45
2023-03-06T22:37:05.925Z,2.55
2023-03-06T22:39:32.392Z,2.48
2023-03-06T22:41:59.460Z,2.49
2023-03-06T22:44:25.935Z,2.52
2023-03-06T22:46:52.746Z,2.58
2023-03-06T22:49:19.182Z,2.58
2023-03-06T22:51:45.572Z,2.59
2023-03-06T22:54:11.953Z,2.62
2023-03-06T22:56:38.384Z,2.57
2023-03-06T22:59:05.434Z,2.56
2023-03-06T23:01:33.485Z,2.59
2023-03-06T23:04:01.886Z,6.18
2023-03-06T23:06:30.503Z,7.87
2023-03-06T23:08:59.255Z,7.57
2023-03-06T23:11:27.360Z,5.88
2023-03-06T23:14:13.905Z,4.49
2023-03-06T23:16:58.777Z,3.66
2023-03-06T23:19:44.087Z,3.30
2023-03-06T23:22:28.943Z,3.12
2023-03-06T23:25:14.254Z,2.92
2023-03-06T23:27:40.756Z,2.96
2023-03-06T23:30:09.675Z,2.87
2023-03-06T23:32:36.185Z,2.80
2023-03-06T23:35:02.793Z,2.88
2023-03-06T23:37:29.348Z,2.99
2023-03-06T23:39:56.065Z,2.92
2023-03-06T23:42:22.753Z,2.88
2023-03-06T23:44:49.174Z,2.93
2023-03-06T23:47:16.527Z,2.94
2023-03-06T23:49:43.131Z,3.07
2023-03-06T23:52:09.864Z,3.03
2023-03-06T23:54:36.332Z,2.91
2023-03-06T23:57:03.017Z,2.92
2023-03-06T23:59:29.466Z,2.87
